createdAt,value
2024-05-09T00:00:26.387Z,95924.81
2024-05-09T00:01:35.301Z,95929.50
2024-05-09T00:02:37.375Z,95932.59
2024-05-09T00:03:41.388Z,95930.78
2024-05-09T00:04:43.420Z,95923.66
2024-05-09T00:05:45.564Z,95924.25
2024-05-09T00:06:47.482Z,95916.78
2024-05-09T00:07:49.378Z,95921.44
2024-05-09T00:08:53.472Z,95923.50
2024-05-09T00:09:55.395Z,95922.91
2024-05-09T00:10:57.331Z,95923.16
2024-05-09T00:11:59.513Z,95920.72
2024-05-09T00:13:02.637Z,95924.38
2024-05-09T00:14:07.029Z,95917.94
2024-05-09T00:15:09.233Z,95929.72
2024-05-09T00:16:13.331Z,95917.19
2024-05-09T00:17:15.339Z,95922.50
2024-05-09T00:18:20.162Z,95921.13
2024-05-09T00:19:22.276Z,95923.34
2024-05-09T00:20:35.049Z,95921.97
2024-05-09T00:21:43.867Z,95923.00
2024-05-09T00:22:48.182Z,95922.41
2024-05-09T00:23:50.077Z,95918.16
2024-05-09T00:24:51.977Z,95915.09
2024-05-09T00:25:56.408Z,95918.75
2024-05-09T00:26:58.386Z,95914.50
2024-05-09T00:28:03.009Z,95916.56
2024-05-09T00:29:04.991Z,95923.44
2024-05-09T00:30:14.271Z,95918.59
2024-05-09T00:31:19.563Z,95922.88
2024-05-09T00:32:23.919Z,95920.69
2024-05-09T00:33:26.187Z,95914.63
2024-05-09T00:34:30.553Z,95920.91
2024-05-09T00:35:32.619Z,95912.66
2024-05-09T00:36:36.630Z,95907.97
2024-05-09T00:37:38.569Z,95916.31
2024-05-09T00:38:42.676Z,95916.72
2024-05-09T00:39:44.707Z,95913.50
2024-05-09T00:40:46.634Z,95914.94
2024-05-09T00:41:48.524Z,95915.97
2024-05-09T00:42:52.758Z,95917.81
2024-05-09T00:43:54.771Z,95912.81
2024-05-09T00:44:58.851Z,95911.00
2024-05-09T00:46:02.971Z,95909.59
2024-05-09T00:47:05.887Z,95920.34
2024-05-09T00:48:10.179Z,95908.41
2024-05-09T00:49:13.221Z,95909.00
2024-05-09T00:50:19.436Z,95914.47
2024-05-09T00:51:30.660Z,95912.91
2024-05-09T00:52:32.761Z,95903.38
2024-05-09T00:53:36.948Z,95909.66
2024-05-09T00:54:39.046Z,95912.88
2024-05-09T00:55:43.846Z,95912.28
2024-05-09T00:56:46.283Z,95907.66
2024-05-09T00:57:48.274Z,95910.50
2024-05-09T00:58:51.458Z,95911.28
2024-05-09T00:59:56.715Z,95907.88
2024-05-09T01:02:22.189Z,95909.72
2024-05-09T01:03:27.482Z,95901.88
2024-05-09T01:04:29.612Z,95899.44
2024-05-09T01:05:32.377Z,95899.81
2024-05-09T01:06:34.507Z,95905.84
2024-05-09T01:07:36.360Z,95906.03
2024-05-09T01:08:40.794Z,95905.41
2024-05-09T01:09:42.768Z,95908.63
2024-05-09T01:10:46.160Z,95908.44
2024-05-09T01:11:50.057Z,95905.81
2024-05-09T01:12:52.184Z,95902.16
2024-05-09T01:13:54.706Z,95898.91
2024-05-09T01:14:59.429Z,95908.41
2024-05-09T01:16:01.458Z,95898.47
2024-05-09T01:17:03.665Z,95902.53
2024-05-09T01:18:11.528Z,95899.69
2024-05-09T01:19:26.710Z,95903.91
2024-05-09T01:20:39.869Z,95898.66
2024-05-09T01:21:47.856Z,95903.91
2024-05-09T01:22:54.158Z,95898.47
2024-05-09T01:23:59.435Z,95904.09
2024-05-09T01:25:01.419Z,95904.75
2024-05-09T01:26:03.290Z,95903.72
2024-05-09T01:27:05.295Z,95900.88
2024-05-09T01:28:07.525Z,95904.50
2024-05-09T01:29:09.477Z,95899.25
2024-05-09T01:30:17.252Z,95902.28
2024-05-09T01:31:23.056Z,95903.91
2024-05-09T01:32:27.233Z,95903.06
2024-05-09T01:33:31.674Z,95896.19
2024-05-09T01:34:33.865Z,95894.00
2024-05-09T01:35:35.861Z,95896.44
2024-05-09T01:36:37.725Z,95900.06
2024-05-09T01:37:41.812Z,95894.59
2024-05-09T01:38:43.779Z,95899.84
2024-05-09T01:39:47.817Z,95902.72
2024-05-09T01:40:50.233Z,95901.88
2024-05-09T01:41:54.926Z,95896.63
2024-05-09T01:42:56.894Z,95900.69
2024-05-09T01:43:58.797Z,95899.47
2024-05-09T01:45:05.294Z,95903.72
2024-05-09T01:46:16.731Z,95900.88
2024-05-09T01:47:21.048Z,95909.34
2024-05-09T01:48:27.448Z,95911.81
2024-05-09T01:49:29.646Z,95907.38
2024-05-09T01:50:38.413Z,95910.41
2024-05-09T01:51:43.162Z,95907.56
2024-05-09T01:52:44.887Z,95904.41
2024-05-09T01:53:49.458Z,95905.16
2024-05-09T01:54:51.285Z,95904.16
2024-05-09T01:55:53.152Z,95905.56
2024-05-09T01:56:55.076Z,95914.84
2024-05-09T01:57:57.137Z,95909.22
2024-05-09T01:59:01.963Z,95907.81
2024-05-09T02:01:56.829Z,95903.56
2024-05-09T02:03:14.800Z,95898.72
2024-05-09T02:04:19.091Z,95907.81
2024-05-09T02:05:21.258Z,95895.25
2024-05-09T02:06:23.295Z,95902.13
2024-05-09T02:07:25.564Z,95897.88
2024-05-09T02:08:27.533Z,95902.13
2024-05-09T02:09:29.480Z,95898.91
2024-05-09T02:10:33.079Z,95892.25
2024-05-09T02:11:43.814Z,95899.72
2024-05-09T02:12:45.978Z,95896.69
2024-05-09T02:13:47.811Z,95896.50
2024-05-09T02:14:51.735Z,95890.03
2024-05-09T02:15:56.522Z,95892.06
2024-05-09T02:16:58.484Z,95891.25
2024-05-09T02:18:00.762Z,95896.31
2024-05-09T02:19:07.605Z,95892.69
2024-05-09T02:20:13.276Z,95882.78
2024-05-09T02:21:20.368Z,95885.41
2024-05-09T02:22:22.314Z,95880.38
2024-05-09T02:23:24.277Z,95887.25
2024-05-09T02:24:26.213Z,95891.50
2024-05-09T02:25:30.626Z,95890.91
2024-05-09T02:26:32.590Z,95890.53
2024-05-09T02:27:36.684Z,95884.25
2024-05-09T02:28:38.728Z,95887.66
2024-05-09T02:29:40.631Z,95888.91
2024-05-09T02:30:42.824Z,95887.28
2024-05-09T02:31:49.680Z,95884.06
2024-05-09T02:32:51.741Z,95884.66
2024-05-09T02:33:54.067Z,95882.03
2024-05-09T02:34:56.167Z,95894.34
2024-05-09T02:35:58.132Z,95890.53
2024-05-09T02:37:05.132Z,95882.88
2024-05-09T02:38:08.751Z,95884.91
2024-05-09T02:39:10.695Z,95881.66
2024-05-09T02:40:14.906Z,95881.44
2024-05-09T02:41:22.539Z,95877.19
2024-05-09T02:42:24.878Z,95884.28
2024-05-09T02:43:29.418Z,95877.44
2024-05-09T02:44:33.662Z,95879.84
2024-05-09T02:45:38.313Z,95883.69
2024-05-09T02:46:40.165Z,95884.91
2024-05-09T02:47:42.271Z,95882.91
2024-05-09T02:48:44.360Z,95884.53
2024-05-09T02:49:46.314Z,95887.75
2024-05-09T02:50:48.451Z,95888.78
2024-05-09T02:51:50.320Z,95883.75
2024-05-09T02:52:52.266Z,95891.81
2024-05-09T02:53:54.495Z,95888.38
2024-05-09T02:54:56.393Z,95888.38
2024-05-09T02:55:58.209Z,95884.94
2024-05-09T02:57:00.208Z,95887.78
2024-05-09T02:58:04.914Z,95880.91
2024-05-09T02:59:06.871Z,95882.13
2024-05-09T03:00:15.200Z,95883.97
2024-05-09T03:01:20.825Z,95872.84
2024-05-09T03:02:22.804Z,95877.28
2024-05-09T03:03:25.255Z,95877.28
2024-05-09T03:04:27.504Z,95876.88
2024-05-09T03:05:29.492Z,95877.88
2024-05-09T03:06:31.451Z,95887.41
2024-05-09T03:07:33.395Z,95872.44
2024-05-09T03:08:40.050Z,95871.84
2024-05-09T03:09:50.683Z,95874.88
2024-05-09T03:10:52.650Z,95874.88
2024-05-09T03:11:57.568Z,95877.50
2024-05-09T03:12:59.785Z,95870.44
2024-05-09T03:14:02.495Z,95873.88
2024-05-09T03:15:07.738Z,95868.03
2024-05-09T03:16:09.803Z,95876.09
2024-05-09T03:17:11.910Z,95871.66
2024-05-09T03:18:15.208Z,95872.44
2024-05-09T03:19:17.580Z,95868.03
2024-05-09T03:20:23.950Z,95867.19
2024-05-09T03:21:29.676Z,95864.78
2024-05-09T03:22:31.678Z,95870.44
2024-05-09T03:23:33.658Z,95874.06
2024-05-09T03:24:35.721Z,95874.84
2024-05-09T03:25:38.638Z,95877.47
2024-05-09T03:26:44.345Z,95867.19
2024-05-09T03:27:48.782Z,95867.97
2024-05-09T03:28:50.868Z,95871.44
2024-05-09T03:29:52.809Z,95875.06
2024-05-09T03:30:54.741Z,95866.38
2024-05-09T03:31:57.041Z,95869.81
2024-05-09T03:33:01.405Z,95868.59
2024-05-09T03:34:03.604Z,95875.66
2024-05-09T03:35:06.056Z,95873.25
2024-05-09T03:36:11.122Z,95877.09
2024-05-09T03:37:14.435Z,95876.69
2024-05-09T03:38:16.490Z,95873.88
2024-05-09T03:39:18.600Z,95876.28
2024-05-09T03:40:23.840Z,95868.59
2024-05-09T03:41:28.696Z,95874.47
2024-05-09T03:42:30.800Z,95870.41
2024-05-09T03:43:32.653Z,95872.44
2024-05-09T03:44:36.917Z,95872.22
2024-05-09T03:45:38.801Z,95876.50
2024-05-09T03:46:41.487Z,95871.63
2024-05-09T03:47:43.914Z,95872.84
2024-05-09T03:48:46.167Z,95869.59
2024-05-09T03:49:49.240Z,95868.19
2024-05-09T03:50:51.357Z,95869.19
2024-05-09T03:51:53.212Z,95872.44
2024-05-09T03:53:01.216Z,95875.66
2024-05-09T03:54:05.577Z,95873.03
2024-05-09T03:55:08.975Z,95871.41
2024-05-09T03:56:10.979Z,95875.88
2024-05-09T03:57:12.954Z,95873.44
2024-05-09T03:58:14.974Z,95879.69
2024-05-09T03:59:16.920Z,95881.31
2024-05-09T04:02:29.504Z,95878.06
2024-05-09T04:03:32.771Z,95880.25
2024-05-09T04:04:35.048Z,95886.13
2024-05-09T04:05:38.146Z,95881.25
2024-05-09T04:06:40.387Z,95879.28
2024-05-09T04:07:45.493Z,95878.88
2024-05-09T04:08:47.584Z,95878.25
2024-05-09T04:09:49.591Z,95879.09
2024-05-09T04:10:52.017Z,95886.94
2024-05-09T04:11:54.099Z,95887.97
2024-05-09T04:12:56.245Z,95886.97
2024-05-09T04:13:58.285Z,95882.31
2024-05-09T04:15:00.190Z,95886.56
2024-05-09T04:16:02.733Z,95885.78
2024-05-09T04:17:05.024Z,95890.41
2024-05-09T04:18:07.337Z,95883.72
2024-05-09T04:19:09.637Z,95890.59
2024-05-09T04:20:21.323Z,95893.84
2024-05-09T04:21:31.296Z,95889.22
2024-05-09T04:22:33.342Z,95890.22
2024-05-09T04:23:38.069Z,95887.59
2024-05-09T04:24:40.076Z,95887.38
2024-05-09T04:25:43.722Z,95896.69
2024-05-09T04:26:45.722Z,95895.06
2024-05-09T04:27:50.180Z,95898.69
2024-05-09T04:28:52.280Z,95903.13
2024-05-09T04:29:55.844Z,95902.94
2024-05-09T04:30:57.747Z,95902.72
2024-05-09T04:32:02.037Z,95898.31
2024-05-09T04:33:04.145Z,95888.44
2024-05-09T04:34:06.335Z,95893.88
2024-05-09T04:35:08.792Z,95897.50
2024-05-09T04:36:10.669Z,95896.50
2024-05-09T04:37:12.598Z,95904.56
2024-05-09T04:38:15.561Z,95904.16
2024-05-09T04:39:17.816Z,95902.75
2024-05-09T04:40:28.142Z,95906.59
2024-05-09T04:41:35.206Z,95909.63
2024-05-09T04:42:39.545Z,95905.75
2024-05-09T04:43:41.697Z,95910.00
2024-05-09T04:44:45.839Z,95909.59
2024-05-09T04:45:47.889Z,95910.81
2024-05-09T04:46:52.046Z,95917.25
2024-05-09T04:47:57.148Z,95910.41
2024-05-09T04:48:59.285Z,95906.72
2024-05-09T04:50:01.491Z,95914.22
2024-05-09T04:51:07.011Z,95909.16
2024-05-09T04:52:09.002Z,95905.09
2024-05-09T04:53:16.018Z,95907.50
2024-05-09T04:54:26.256Z,95905.88
2024-05-09T04:55:36.219Z,95900.41
2024-05-09T04:56:38.287Z,95905.41
2024-05-09T04:57:40.298Z,95902.59
2024-05-09T04:58:42.167Z,95904.56
2024-05-09T04:59:44.528Z,95907.19
2024-05-09T05:00:46.577Z,95903.50
2024-05-09T05:01:48.737Z,95908.94
2024-05-09T05:02:50.694Z,95906.47
2024-05-09T05:03:55.983Z,95902.63
2024-05-09T05:04:59.471Z,95909.50
2024-05-09T05:06:01.674Z,95907.22
2024-05-09T05:07:06.776Z,95907.63
2024-05-09T05:08:12.613Z,95914.47
2024-05-09T05:09:14.763Z,95912.84
2024-05-09T05:10:25.091Z,95912.41
2024-05-09T05:11:31.348Z,95910.53
2024-05-09T05:12:54.322Z,95909.09
2024-05-09T05:13:56.420Z,95909.91
2024-05-09T05:15:00.557Z,95911.47
2024-05-09T05:16:02.495Z,95912.22
2024-05-09T05:17:05.214Z,95904.28
2024-05-09T05:18:07.321Z,95906.09
2024-05-09T05:19:12.012Z,95914.22
2024-05-09T05:20:24.533Z,95903.09
2024-05-09T05:21:33.083Z,95905.78
2024-05-09T05:22:34.997Z,95906.75
2024-05-09T05:23:37.162Z,95902.47
2024-05-09T05:24:41.583Z,95903.84
2024-05-09T05:25:43.909Z,95907.91
2024-05-09T05:26:46.176Z,95906.88
2024-05-09T05:27:48.107Z,95901.97
2024-05-09T05:28:51.062Z,95911.06
2024-05-09T05:29:53.097Z,95909.59
2024-05-09T05:30:54.985Z,95914.44
2024-05-09T05:31:56.921Z,95921.91
2024-05-09T05:32:58.952Z,95914.16
2024-05-09T05:34:00.970Z,95915.13
2024-05-09T05:35:02.985Z,95914.69
2024-05-09T05:36:05.285Z,95909.00
2024-05-09T05:37:07.189Z,95919.09
2024-05-09T05:38:10.452Z,95923.50
2024-05-09T05:39:12.585Z,95921.03
2024-05-09T05:40:24.726Z,95919.56
2024-05-09T05:41:30.461Z,95914.81
2024-05-09T05:42:32.507Z,95920.03
2024-05-09T05:43:34.431Z,95917.97
2024-05-09T05:44:36.341Z,95918.94
2024-05-09T05:45:39.273Z,95919.91
2024-05-09T05:46:43.681Z,95917.03
2024-05-09T05:47:48.024Z,95922.84
2024-05-09T05:48:50.379Z,95919.75
2024-05-09T05:49:52.466Z,95918.28
2024-05-09T05:51:01.127Z,95918.88
2024-05-09T05:52:04.944Z,95922.22
2024-05-09T05:53:08.022Z,95919.97
2024-05-09T05:54:10.625Z,95923.09
2024-05-09T05:55:12.967Z,95922.66
2024-05-09T05:56:14.845Z,95930.28
2024-05-09T05:57:17.024Z,95925.13
2024-05-09T05:58:22.516Z,95924.81
2024-05-09T05:59:24.480Z,95924.38
2024-05-09T06:00:34.157Z,95930.59
2024-05-09T06:01:39.796Z,95928.53
2024-05-09T06:02:44.332Z,95928.00
2024-05-09T06:03:46.542Z,95928.69
2024-05-09T06:04:51.820Z,95927.34
2024-05-09T06:05:53.946Z,95923.91
2024-05-09T06:06:55.862Z,95927.66
2024-05-09T06:08:00.319Z,95924.09
2024-05-09T06:09:02.520Z,95924.22
2024-05-09T06:10:09.285Z,95924.22
2024-05-09T06:11:16.650Z,95919.84
2024-05-09T06:12:18.704Z,95922.63
2024-05-09T06:13:25.413Z,95912.16
2024-05-09T06:14:27.515Z,95915.03
2024-05-09T06:15:29.505Z,95913.53
2024-05-09T06:16:31.607Z,95917.69
2024-05-09T06:17:34.784Z,95918.16
2024-05-09T06:18:41.735Z,95917.22
2024-05-09T06:19:43.761Z,95914.09
2024-05-09T06:20:46.086Z,95916.28
2024-05-09T06:21:48.270Z,95915.34
2024-05-09T06:22:52.625Z,95912.44
2024-05-09T06:23:54.781Z,95916.03
2024-05-09T06:24:56.762Z,95921.75
2024-05-09T06:25:58.716Z,95921.63
2024-05-09T06:27:01.420Z,95919.44
2024-05-09T06:28:04.126Z,95919.06
2024-05-09T06:29:06.026Z,95919.63
2024-05-09T06:30:12.212Z,95913.28
2024-05-09T06:31:22.873Z,95913.38
2024-05-09T06:32:24.999Z,95916.81
2024-05-09T06:33:27.257Z,95918.09
2024-05-09T06:34:29.932Z,95914.97
2024-05-09T06:35:32.007Z,95907.69
2024-05-09T06:36:33.987Z,95916.50
2024-05-09T06:37:36.477Z,95914.34
2024-05-09T06:38:41.410Z,95917.16
2024-05-09T06:39:45.996Z,95907.78
2024-05-09T06:40:47.937Z,95915.94
2024-05-09T06:41:50.221Z,95915.94
2024-05-09T06:42:54.546Z,95917.91
2024-05-09T06:43:56.448Z,95913.06
2024-05-09T06:44:58.285Z,95908.13
2024-05-09T06:46:00.222Z,95913.41
2024-05-09T06:47:04.674Z,95905.03
2024-05-09T06:48:07.740Z,95905.78
2024-05-09T06:49:13.734Z,95913.13
2024-05-09T06:50:23.392Z,95910.28
2024-05-09T06:51:29.118Z,95903.47
2024-05-09T06:52:31.112Z,95902.84
2024-05-09T06:53:33.196Z,95906.88
2024-05-09T06:54:35.763Z,95904.91
2024-05-09T06:55:38.171Z,95906.59
2024-05-09T06:56:40.203Z,95906.41
2024-05-09T06:57:45.332Z,95911.88
2024-05-09T06:58:50.758Z,95912.53
2024-05-09T06:59:52.724Z,95913.16
2024-05-09T07:02:13.655Z,95919.13
2024-05-09T07:03:21.295Z,95915.94
2024-05-09T07:04:23.460Z,95919.03
2024-05-09T07:05:25.744Z,95921.84
2024-05-09T07:06:27.934Z,95907.84
2024-05-09T07:07:29.788Z,95912.03
2024-05-09T07:08:31.935Z,95907.72
2024-05-09T07:09:37.529Z,95907.38
2024-05-09T07:10:41.699Z,95908.34
2024-05-09T07:11:46.158Z,95911.38
2024-05-09T07:12:48.096Z,95903.97
2024-05-09T07:13:52.456Z,95902.19
2024-05-09T07:14:55.071Z,95906.28
2024-05-09T07:15:57.023Z,95907.97
2024-05-09T07:16:59.160Z,95910.63
2024-05-09T07:18:20.370Z,95898.63
2024-05-09T07:19:23.047Z,95904.06
2024-05-09T07:20:33.729Z,95908.09
2024-05-09T07:21:36.930Z,95903.84
2024-05-09T07:22:41.251Z,95902.59
2024-05-09T07:23:45.415Z,95903.47
2024-05-09T07:24:48.796Z,95905.72
2024-05-09T07:25:50.817Z,95911.34
2024-05-09T07:26:52.684Z,95910.59
2024-05-09T07:27:57.067Z,95905.09
2024-05-09T07:28:59.062Z,95900.34
2024-05-09T07:30:00.980Z,95908.38
2024-05-09T07:31:02.940Z,95903.78
2024-05-09T07:32:06.812Z,95901.00
2024-05-09T07:33:15.729Z,95905.59
2024-05-09T07:34:18.047Z,95908.25
2024-05-09T07:35:22.537Z,95906.59
2024-05-09T07:36:27.704Z,95913.56
2024-05-09T07:37:29.583Z,95910.44
2024-05-09T07:38:31.550Z,95901.03
2024-05-09T07:39:35.948Z,95914.16
2024-05-09T07:40:38.765Z,95917.19
2024-05-09T07:41:43.359Z,95910.16
2024-05-09T07:42:47.402Z,95906.78
2024-05-09T07:43:49.374Z,95912.69
2024-05-09T07:44:51.498Z,95907.25
2024-05-09T07:45:56.024Z,95909.94
2024-05-09T07:53:32.762Z,95907.16
2024-05-09T07:53:57.258Z,95906.63
2024-05-09T07:55:01.889Z,95908.94
2024-05-09T07:56:04.217Z,95907.38
2024-05-09T07:57:06.265Z,95904.50
2024-05-09T07:58:08.331Z,95907.09
2024-05-09T07:59:10.209Z,95900.97
2024-05-09T08:00:17.217Z,95902.38
2024-05-09T08:01:20.529Z,95904.22
2024-05-09T08:02:24.416Z,95901.81
2024-05-09T08:03:26.575Z,95905.50
2024-05-09T08:04:28.736Z,95907.09
2024-05-09T08:05:30.990Z,95898.53
2024-05-09T08:06:33.649Z,95905.72
2024-05-09T08:07:37.613Z,95896.97
2024-05-09T08:08:39.537Z,95891.94
2024-05-09T08:09:41.501Z,95901.81
2024-05-09T08:10:43.781Z,95901.84
2024-05-09T08:11:45.873Z,95901.56
2024-05-09T08:12:47.870Z,95895.88
2024-05-09T08:13:49.952Z,95895.59
2024-05-09T08:14:53.089Z,95894.00
2024-05-09T08:15:54.998Z,95896.91
2024-05-09T08:16:59.615Z,95897.41
2024-05-09T08:18:01.808Z,95894.25
2024-05-09T08:19:07.190Z,95899.59
2024-05-09T08:20:15.851Z,95892.47
2024-05-09T08:21:22.722Z,95893.31
2024-05-09T08:22:24.561Z,95899.22
2024-05-09T08:23:26.614Z,95887.75
2024-05-09T08:24:28.509Z,95896.81
2024-05-09T08:25:30.336Z,95889.66
2024-05-09T08:26:32.360Z,95890.97
2024-05-09T08:27:34.271Z,95891.53
2024-05-09T08:28:36.228Z,95889.41
2024-05-09T08:29:38.401Z,95891.00
2024-05-09T08:30:40.491Z,95888.06
2024-05-09T08:31:42.714Z,95882.72
2024-05-09T08:32:46.833Z,95888.34
2024-05-09T08:33:50.533Z,95888.59
2024-05-09T08:34:52.671Z,95889.69
2024-05-09T08:35:54.765Z,95883.59
2024-05-09T08:36:57.799Z,95888.06
2024-05-09T08:38:04.772Z,95888.66
2024-05-09T08:39:06.896Z,95889.78
2024-05-09T08:40:19.899Z,95889.53
2024-05-09T08:41:32.276Z,95883.69
2024-05-09T08:42:37.958Z,95890.09
2024-05-09T08:43:42.145Z,95888.75
2024-05-09T08:44:44.769Z,95885.84
2024-05-09T08:45:52.095Z,95889.53
2024-05-09T08:46:54.202Z,95882.09
2024-05-09T08:47:59.602Z,95890.06
2024-05-09T08:49:03.430Z,95884.88
2024-05-09T08:50:13.584Z,95884.41
2024-05-09T08:51:18.824Z,95882.81
2024-05-09T08:52:22.954Z,95878.69
2024-05-09T08:53:27.437Z,95884.56
2024-05-09T08:54:30.699Z,95877.03
2024-05-09T08:55:32.721Z,95888.72
2024-05-09T08:56:39.296Z,95879.16
2024-05-09T08:57:41.625Z,95879.41
2024-05-09T08:58:48.153Z,95883.63
2024-05-09T08:59:55.861Z,95879.66
2024-05-09T09:01:00.467Z,95881.50
2024-05-09T09:02:04.804Z,95879.97
2024-05-09T09:03:09.817Z,95881.56
2024-05-09T09:04:13.907Z,95883.44
2024-05-09T09:05:17.432Z,95885.59
2024-05-09T09:06:21.918Z,95878.44
2024-05-09T09:07:28.657Z,95880.59
2024-05-09T09:08:30.687Z,95880.63
2024-05-09T09:09:33.021Z,95887.13
2024-05-09T09:10:35.434Z,95882.88
2024-05-09T09:11:37.699Z,95883.16
2024-05-09T09:12:40.734Z,95882.66
2024-05-09T09:13:42.629Z,95873.88
2024-05-09T09:14:44.658Z,95873.38
2024-05-09T09:15:50.365Z,95872.34
2024-05-09T09:16:53.230Z,95872.88
2024-05-09T09:17:59.483Z,95880.91
2024-05-09T09:19:04.345Z,95874.25
2024-05-09T09:20:14.484Z,95877.19
2024-05-09T09:21:22.162Z,95871.63
2024-05-09T09:22:24.018Z,95870.56
2024-05-09T09:23:30.557Z,95870.81
2024-05-09T09:24:32.809Z,95871.34
2024-05-09T09:25:35.061Z,95870.56
2024-05-09T09:26:36.906Z,95879.91
2024-05-09T09:27:39.455Z,95875.09
2024-05-09T09:28:41.435Z,95875.09
2024-05-09T09:29:43.359Z,95871.63
2024-05-09T09:30:46.022Z,95875.63
2024-05-09T09:31:58.301Z,95879.91
2024-05-09T09:33:00.119Z,95876.19
2024-05-09T09:34:07.528Z,95875.09
2024-05-09T09:35:09.722Z,95871.06
2024-05-09T09:36:14.613Z,95873.75
2024-05-09T09:37:20.992Z,95877.50
2024-05-09T09:38:23.957Z,95868.94
2024-05-09T09:39:28.591Z,95871.34
2024-05-09T09:40:37.550Z,95878.81
2024-05-09T09:41:47.819Z,95872.91
2024-05-09T09:42:50.453Z,95874.50
2024-05-09T09:43:53.641Z,95867.03
2024-05-09T09:45:04.439Z,95879.56
2024-05-09T09:46:12.292Z,95868.63
2024-05-09T09:47:20.951Z,95868.59
2024-05-09T09:48:26.605Z,95870.41
2024-05-09T09:49:32.341Z,95870.09
2024-05-09T09:50:35.671Z,95878.03
2024-05-09T09:51:43.569Z,95864.91
2024-05-09T09:52:46.631Z,95882.28
2024-05-09T09:53:50.581Z,95872.38
2024-05-09T09:54:54.096Z,95874.22
2024-05-09T09:55:57.158Z,95870.22
2024-05-09T09:56:59.935Z,95870.97
2024-05-09T09:58:06.462Z,95878.13
2024-05-09T09:59:10.081Z,95875.09
2024-05-09T10:02:24.126Z,95871.19
2024-05-09T10:03:27.457Z,95877.59
2024-05-09T10:04:31.063Z,95872.25
2024-05-09T10:05:34.285Z,95873.88
2024-05-09T10:06:42.727Z,95873.34
2024-05-09T10:07:46.787Z,95872.00
2024-05-09T10:08:49.642Z,95870.13
2024-05-09T10:09:56.211Z,95877.88
2024-05-09T10:10:58.338Z,95869.34
2024-05-09T10:12:12.526Z,95868.81
2024-05-09T10:13:16.929Z,95867.75
2024-05-09T10:14:22.330Z,95869.63
2024-05-09T10:15:24.187Z,95877.06
2024-05-09T10:16:31.168Z,95876.84
2024-05-09T10:17:34.010Z,95872.03
2024-05-09T10:18:37.191Z,95869.59
2024-05-09T10:19:39.341Z,95874.94
2024-05-09T10:20:46.180Z,95874.38
2024-05-09T10:21:48.109Z,95871.16
2024-05-09T10:22:52.446Z,95870.63
2024-05-09T10:23:57.678Z,95871.13
2024-05-09T10:25:09.556Z,95870.53
2024-05-09T10:26:16.040Z,95871.88
2024-05-09T10:27:28.556Z,95870.81
2024-05-09T10:28:35.569Z,95870.53
2024-05-09T10:29:37.876Z,95868.91
2024-05-09T10:30:40.042Z,95875.81
2024-05-09T10:31:45.900Z,95874.25
2024-05-09T10:32:53.678Z,95873.97
2024-05-09T10:33:56.173Z,95873.47
2024-05-09T10:35:06.632Z,95873.75
2024-05-09T10:36:12.953Z,95868.41
2024-05-09T10:37:14.985Z,95867.31
2024-05-09T10:38:19.869Z,95875.34
2024-05-09T10:39:22.169Z,95863.28
2024-05-09T10:40:29.365Z,95867.88
2024-05-09T10:41:33.757Z,95867.03
2024-05-09T10:42:39.251Z,95857.16
2024-05-09T10:43:42.043Z,95867.88
2024-05-09T10:44:43.844Z,95861.31
2024-05-09T10:45:45.874Z,95853.00
2024-05-09T10:46:50.787Z,95852.78
2024-05-09T10:47:52.858Z,95860.50
2024-05-09T10:48:55.148Z,95857.03
2024-05-09T10:49:57.320Z,95865.28
2024-05-09T10:51:01.992Z,95859.72
2024-05-09T10:52:08.627Z,95854.44
2024-05-09T10:53:10.586Z,95853.88
2024-05-09T10:54:12.574Z,95868.31
2024-05-09T10:55:14.658Z,95859.53
2024-05-09T10:56:17.532Z,95859.78
2024-05-09T10:57:20.372Z,95856.63
2024-05-09T10:58:22.543Z,95867.03
2024-05-09T10:59:33.023Z,95860.09
2024-05-09T11:00:37.721Z,95849.09
2024-05-09T11:01:40.538Z,95862.97
2024-05-09T11:02:44.236Z,95853.09
2024-05-09T11:03:49.920Z,95857.91
2024-05-09T11:04:53.188Z,95858.44
2024-05-09T11:05:58.052Z,95859.00
2024-05-09T11:07:05.280Z,95859.81
2024-05-09T11:08:10.964Z,95857.44
2024-05-09T11:09:15.451Z,95857.97
2024-05-09T11:10:24.900Z,95849.94
2024-05-09T11:11:30.213Z,95853.66
2024-05-09T11:12:32.378Z,95856.34
2024-05-09T11:13:36.110Z,95852.59
2024-05-09T11:14:38.030Z,95856.56
2024-05-09T11:15:45.180Z,95854.44
2024-05-09T11:16:47.170Z,95858.72
2024-05-09T11:17:51.555Z,95855.25
2024-05-09T11:18:55.932Z,95854.19
2024-05-09T11:20:00.674Z,95857.44
2024-05-09T11:21:03.497Z,95856.06
2024-05-09T11:22:06.184Z,95859.25
2024-05-09T11:23:08.301Z,95857.97
2024-05-09T11:24:11.579Z,95862.22
2024-05-09T11:25:15.980Z,95863.00
2024-05-09T11:26:22.342Z,95856.91
2024-05-09T11:27:26.747Z,95861.69
2024-05-09T11:28:30.541Z,95865.13
2024-05-09T11:29:39.554Z,95859.56
2024-05-09T11:30:43.710Z,95864.09
2024-05-09T11:31:46.956Z,95858.22
2024-05-09T11:32:49.320Z,95862.50
2024-05-09T11:33:54.671Z,95866.50
2024-05-09T11:34:56.728Z,95857.97
2024-05-09T11:36:00.753Z,95861.16
2024-05-09T11:37:04.548Z,95860.56
2024-05-09T11:38:06.644Z,95859.47
2024-05-09T11:39:09.153Z,95863.47
2024-05-09T11:40:17.073Z,95857.59
2024-05-09T11:41:27.287Z,95859.19
2024-05-09T11:42:29.174Z,95863.19
2024-05-09T11:43:31.650Z,95857.81
2024-05-09T11:44:33.637Z,95867.69
2024-05-09T11:45:35.559Z,95859.34
2024-05-09T11:46:37.647Z,95860.41
2024-05-09T11:47:39.879Z,95860.41
2024-05-09T11:48:41.984Z,95853.72
2024-05-09T11:49:44.188Z,95855.56
2024-05-09T11:50:46.126Z,95860.41
2024-05-09T11:51:48.049Z,95850.22
2024-05-09T11:52:49.942Z,95849.69
2024-05-09T11:53:54.168Z,95860.38
2024-05-09T11:54:56.176Z,95850.47
2024-05-09T11:55:58.119Z,95837.41
2024-05-09T11:57:02.382Z,95846.75
2024-05-09T11:58:04.986Z,95845.97
2024-05-09T11:59:09.736Z,95846.44
2024-05-09T12:00:18.192Z,95851.25
2024-05-09T12:01:27.999Z,95851.28
2024-05-09T12:02:30.389Z,95849.16
2024-05-09T12:03:35.433Z,95852.91
2024-05-09T12:04:37.569Z,95845.41
2024-05-09T12:05:39.814Z,95850.22
2024-05-09T12:06:41.782Z,95852.91
2024-05-09T12:07:43.772Z,95851.84
2024-05-09T12:08:45.800Z,95844.38
2024-05-09T12:09:47.721Z,95844.13
2024-05-09T12:10:49.988Z,95844.91
2024-05-09T12:11:52.204Z,95837.97
2024-05-09T12:12:54.103Z,95838.25
2024-05-09T12:13:55.944Z,95838.75
2024-05-09T12:14:57.870Z,95847.00
2024-05-09T12:15:59.848Z,95843.25
2024-05-09T12:17:03.824Z,95837.34
2024-05-09T12:18:07.154Z,95840.28
2024-05-09T12:19:09.988Z,95843.75
2024-05-09T12:20:21.011Z,95836.25
2024-05-09T12:21:30.476Z,95839.94
2024-05-09T12:22:34.719Z,95837.69
2024-05-09T12:23:41.203Z,95840.53
2024-05-09T12:24:45.569Z,95833.22
2024-05-09T12:25:47.579Z,95841.72
2024-05-09T12:26:49.584Z,95833.22
2024-05-09T12:27:51.904Z,95834.84
2024-05-09T12:28:53.899Z,95836.44
2024-05-09T12:29:55.784Z,95840.09
2024-05-09T12:30:57.791Z,95830.19
2024-05-09T12:32:00.038Z,95829.63
2024-05-09T12:33:04.794Z,95827.72
2024-05-09T12:34:07.036Z,95822.94
2024-05-09T12:35:08.927Z,95830.09
2024-05-09T12:36:11.063Z,95829.28
2024-05-09T12:37:13.915Z,95827.44
2024-05-09T12:38:20.794Z,95825.72
2024-05-09T12:39:22.675Z,95826.38
2024-05-09T12:40:35.416Z,95831.13
2024-05-09T12:41:39.914Z,95833.13
2024-05-09T12:42:41.966Z,95835.84
2024-05-09T12:43:44.084Z,95833.34
2024-05-09T12:44:46.010Z,95837.34